Time;durP1;ratioP1;P1;durP2;ratioP2;P2;SDS_P1;SDS_P2;PMS_P1;PMS_P2;Temp;Humidity;BMP_temperature;BMP_pressure;BME280_temperature;BME280_humidity;BME280_pressure;Samples;Min_cycle;Max_cycle;Signal;HPM_P1;HPM_P2
2023/03/23 00:02:24;;;;;;;;;;;;;;;9.00;93.90;99413.16;5087847;28;19927;-75
2023/03/23 00:04:50;;;;;;;;;;;;;;;8.66;96.16;99414.72;5091737;28;19920;-75
2023/03/23 00:07:20;;;;;;;;;;;;;;;8.38;98.43;99420.50;5093213;28;20352;-75
2023/03/23 00:09:46;;;;;;;;;;;;;;;8.03;99.98;99421.16;5091897;28;19934;-74
2023/03/23 00:12:15;;;;;;;;;;;;;;;7.85;100.00;99414.66;5079057;28;19916;-74
2023/03/23 00:14:43;;;;;;;;;;;;;;;7.88;100.00;99422.38;5092739;28;19916;-75
2023/03/23 00:17:10;;;;;;;;;;;;;;;7.91;100.00;99427.31;5092954;28;19912;-75
2023/03/23 00:19:45;;;;;;;;;;;;;;;7.97;100.00;99422.41;5091395;28;19916;-75
2023/03/23 00:22:11;;;;;;;;;;;;;;;8.16;100.00;99424.97;5092746;28;19920;-74
2023/03/23 00:24:37;;;;;;;;;;;;;;;8.17;100.00;99417.47;5092493;28;20378;-75
2023/03/23 00:27:02;;;;;;;;;;;;;;;7.78;100.00;99417.88;5087062;28;20024;-74
2023/03/23 00:29:28;;;;;;;;;;;;;;;8.06;100.00;99414.09;5087688;28;19916;-74
2023/03/23 00:31:53;;;;;;;;;;;;;;;8.18;100.00;99416.31;5092504;28;19924;-74
2023/03/23 00:34:22;;;;;;;;;;;;;;;8.34;100.00;99408.34;5085207;28;20431;-74
2023/03/23 00:36:48;;;;;;;;;;;;;;;8.36;100.00;99408.84;5092745;28;20393;-74
2023/03/23 00:39:15;;;;;;;;;;;;;;;8.17;100.00;99409.91;5092324;28;20463;-74
2023/03/23 00:41:41;;;;;;;;;;;;;;;8.09;100.00;99413.50;5091940;28;20417;-75
2023/03/23 00:44:08;;;;;;;;;;;;;;;8.06;100.00;99417.72;5080557;28;19920;-74
2023/03/23 00:46:33;;;;;;;;;;;;;;;7.98;100.00;99410.97;5092077;28;19973;-75
2023/03/23 00:48:59;;;;;;;;;;;;;;;7.76;100.00;99411.00;5109631;27;19920;-74
2023/03/23 00:51:26;;;;;;;;;;;;;;;7.93;100.00;99410.28;5071349;28;20489;-75
2023/03/23 00:53:51;;;;;;;;;;;;;;;7.97;100.00;99409.34;5090650;28;19920;-75
2023/03/23 00:56:17;;;;;;;;;;;;;;;7.96;100.00;99416.03;5092211;28;20451;-75
2023/03/23 00:58:42;;;;;;;;;;;;;;;8.03;100.00;99406.41;5091934;28;19923;-74
2023/03/23 01:01:08;;;;;;;;;;;;;;;7.67;100.00;99406.19;5076149;28;20310;-75
2023/03/23 01:03:34;;;;;;;;;;;;;;;7.62;100.00;99402.69;5086157;28;19916;-74
2023/03/23 01:06:12;;;;;;;;;;;;;;;7.59;100.00;99396.63;5091510;28;19920;-75
2023/03/23 01:08:44;;;;;;;;;;;;;;;7.56;100.00;99399.22;5090961;28;20341;-75
2023/03/23 01:11:11;;;;;;;;;;;;;;;7.38;100.00;99409.41;5090631;28;19912;-74
2023/03/23 01:13:36;;;;;;;;;;;;;;;7.38;100.00;99406.63;5091815;28;19952;-74
2023/03/23 01:16:02;;;;;;;;;;;;;;;7.48;100.00;99402.75;5088242;28;20354;-74
2023/03/23 01:18:27;;;;;;;;;;;;;;;7.43;100.00;99403.72;5089983;28;19916;-74
2023/03/23 01:20:52;;;;;;;;;;;;;;;7.29;100.00;99403.78;5091820;28;20017;-74
2023/03/23 01:23:18;;;;;;;;;;;;;;;7.19;100.00;99404.84;5091502;28;20049;-74
2023/03/23 01:25:45;;;;;;;;;;;;;;;7.19;100.00;99396.50;5090108;28;19930;-75
2023/03/23 01:28:11;;;;;;;;;;;;;;;7.25;100.00;99399.97;5091426;28;20018;-74
2023/03/23 01:30:36;;;;;;;;;;;;;;;7.22;100.00;99407.00;5091807;28;19945;-74
2023/03/23 01:33:02;;;;;;;;;;;;;;;7.45;100.00;99402.25;5083972;28;20419;-74
2023/03/23 01:35:27;;;;;;;;;;;;;;;7.69;100.00;99409.47;5082398;28;20295;-75
2023/03/23 01:37:53;;;;;;;;;;;;;;;7.45;100.00;99412.59;5090508;28;20360;-75
2023/03/23 01:40:18;;;;;;;;;;;;;;;7.43;100.00;99410.09;5091809;28;19958;-75
2023/03/23 01:42:44;;;;;;;;;;;;;;;7.39;100.00;99402.69;5091320;28;19952;-75
2023/03/23 01:45:30;;;;;;;;;;;;;;;7.49;100.00;99407.22;5091252;28;20413;-75
2023/03/23 01:47:58;;;;;;;;;;;;;;;7.18;100.00;99407.94;5073805;28;19920;-75
2023/03/23 01:50:24;;;;;;;;;;;;;;;7.19;100.00;99412.34;5071918;28;19916;-75
2023/03/23 01:52:52;;;;;;;;;;;;;;;6.95;100.00;99419.00;5080042;28;20380;-74
2023/03/23 01:55:18;;;;;;;;;;;;;;;6.82;100.00;99413.16;5091265;28;20002;-75
2023/03/23 01:57:44;;;;;;;;;;;;;;;6.82;100.00;99413.16;5091368;28;20325;-75
2023/03/23 02:00:14;;;;;;;;;;;;;;;6.82;100.00;99415.13;5089865;28;19912;-74
2023/03/23 02:02:41;;;;;;;;;;;;;;;6.80;100.00;99409.88;5088330;28;19960;-74
2023/03/23 02:05:10;;;;;;;;;;;;;;;6.78;100.00;99409.38;5083369;28;19917;-74
2023/03/23 02:07:35;;;;;;;;;;;;;;;6.70;100.00;99412.88;5090668;28;19970;-74
2023/03/23 02:10:01;;;;;;;;;;;;;;;6.69;100.00;99414.81;5091262;28;19963;-74
2023/03/23 02:12:26;;;;;;;;;;;;;;;6.66;100.00;99406.28;5091622;28;20303;-74
2023/03/23 02:14:52;;;;;;;;;;;;;;;6.84;100.00;99412.84;5090790;28;19912;-74
2023/03/23 02:17:17;;;;;;;;;;;;;;;7.00;100.00;99418.91;5089797;28;19916;-74
2023/03/23 02:19:42;;;;;;;;;;;;;;;7.08;100.00;99420.94;5091271;28;19919;-75
2023/03/23 02:22:26;;;;;;;;;;;;;;;7.19;100.00;99423.47;5081147;28;19923;-74
2023/03/23 02:25:01;;;;;;;;;;;;;;;7.23;100.00;99421.72;5094794;28;20314;-74
2023/03/23 02:27:45;;;;;;;;;;;;;;;7.07;100.00;99415.69;5094818;28;20413;-74
2023/03/23 02:30:22;;;;;;;;;;;;;;;7.01;100.00;99415.00;5094131;28;19959;-74
2023/03/23 02:33:06;;;;;;;;;;;;;;;6.93;100.00;99412.94;5093362;28;20328;-75
2023/03/23 02:35:35;;;;;;;;;;;;;;;7.16;100.00;99420.19;5094399;28;19977;-74
2023/03/23 02:38:04;;;;;;;;;;;;;;;7.08;100.00;99415.38;5094898;28;19970;-74
2023/03/23 02:40:50;;;;;;;;;;;;;;;7.27;100.00;99415.22;5075290;28;19956;-75
2023/03/23 02:43:20;;;;;;;;;;;;;;;7.59;100.00;99413.34;5088786;28;20018;-75
2023/03/23 02:45:45;;;;;;;;;;;;;;;7.81;100.00;99414.47;5094392;28;19916;-75
2023/03/23 02:48:13;;;;;;;;;;;;;;;7.87;100.00;99410.41;5094339;28;19942;-75
2023/03/23 02:50:41;;;;;;;;;;;;;;;7.98;99.86;99422.13;5094527;28;19970;-75
2023/03/23 02:53:09;;;;;;;;;;;;;;;8.14;98.37;99421.69;5094424;28;19989;-75
2023/03/23 02:55:40;;;;;;;;;;;;;;;8.12;97.58;99430.38;5094395;28;20395;-75
2023/03/23 02:58:05;;;;;;;;;;;;;;;8.24;97.37;99428.94;5082169;28;19916;-75
2023/03/23 03:00:31;;;;;;;;;;;;;;;8.24;96.97;99426.16;5094426;28;20598;-75
2023/03/23 03:02:57;;;;;;;;;;;;;;;8.23;97.41;99417.00;5092594;28;19916;-75
2023/03/23 03:05:22;;;;;;;;;;;;;;;8.21;98.25;99418.44;5094145;28;19916;-75
2023/03/23 03:07:48;;;;;;;;;;;;;;;8.30;98.82;99419.31;5094210;28;19916;-75
2023/03/23 03:10:13;;;;;;;;;;;;;;;8.40;98.60;99424.63;5093037;28;20412;-75
2023/03/23 03:12:45;;;;;;;;;;;;;;;8.47;98.15;99423.31;5085015;28;19923;-75
2023/03/23 03:15:23;;;;;;;;;;;;;;;8.56;98.22;99424.19;5113671;27;19918;-75
2023/03/23 03:17:55;;;;;;;;;;;;;;;8.53;97.42;99428.44;5091868;28;19916;-75
2023/03/23 03:20:22;;;;;;;;;;;;;;;8.30;99.08;99424.91;5094238;28;19912;-74
2023/03/23 03:22:47;;;;;;;;;;;;;;;8.46;98.37;99422.50;5093853;28;20010;-75
2023/03/23 03:25:15;;;;;;;;;;;;;;;8.41;98.06;99422.63;5094103;28;19951;-75
2023/03/23 03:27:43;;;;;;;;;;;;;;;7.95;100.00;99422.72;5093633;28;19939;-74
2023/03/23 03:30:11;;;;;;;;;;;;;;;7.80;100.00;99428.69;5083537;28;19916;-75
2023/03/23 03:32:40;;;;;;;;;;;;;;;7.53;100.00;99430.47;5086776;28;20378;-75
2023/03/23 03:35:05;;;;;;;;;;;;;;;7.66;100.00;99432.38;5084266;28;19920;-75
2023/03/23 03:37:38;;;;;;;;;;;;;;;7.49;100.00;99437.81;5073504;28;20374;-74
2023/03/23 03:40:10;;;;;;;;;;;;;;;7.47;100.00;99442.88;5073519;28;19999;-75
2023/03/23 03:42:36;;;;;;;;;;;;;;;7.53;100.00;99434.06;5079617;28;19920;-74
2023/03/23 03:45:05;;;;;;;;;;;;;;;7.55;100.00;99442.13;5088146;28;20297;-74
2023/03/23 03:47:31;;;;;;;;;;;;;;;7.62;100.00;99439.72;5092645;28;19924;-74
2023/03/23 03:49:56;;;;;;;;;;;;;;;7.69;100.00;99433.72;5082582;28;19916;-74
2023/03/23 03:52:21;;;;;;;;;;;;;;;7.47;100.00;99440.91;5078628;28;19916;-74
2023/03/23 03:54:47;;;;;;;;;;;;;;;7.72;100.00;99445.03;5093395;28;19912;-76
2023/03/23 03:57:12;;;;;;;;;;;;;;;7.92;100.00;99437.28;5093029;28;19918;-75
2023/03/23 03:59:37;;;;;;;;;;;;;;;7.89;100.00;99446.28;5093127;28;19916;-74
2023/03/23 04:02:03;;;;;;;;;;;;;;;7.92;100.00;99444.84;5090015;28;20457;-75
2023/03/23 04:04:29;;;;;;;;;;;;;;;7.96;100.00;99440.28;5091521;28;19939;-75
2023/03/23 04:06:54;;;;;;;;;;;;;;;8.01;100.00;99443.75;5091609;28;20414;-75
2023/03/23 04:09:21;;;;;;;;;;;;;;;7.84;100.00;99450.03;5093221;28;20363;-74
2023/03/23 04:11:46;;;;;;;;;;;;;;;7.81;100.00;99452.63;5072889;28;19920;-75
2023/03/23 04:14:12;;;;;;;;;;;;;;;7.23;100.00;99450.38;5091806;28;20390;-75
2023/03/23 04:16:37;;;;;;;;;;;;;;;7.03;100.00;99457.22;5092108;28;19912;-74
2023/03/23 04:19:03;;;;;;;;;;;;;;;6.86;100.00;99455.88;5104829;28;19924;-74
2023/03/23 04:21:28;;;;;;;;;;;;;;;7.20;100.00;99456.56;5072648;28;20349;-75
2023/03/23 04:23:58;;;;;;;;;;;;;;;7.07;100.00;99457.41;5090371;28;19942;-74
2023/03/23 04:26:24;;;;;;;;;;;;;;;6.94;100.00;99459.91;5092811;28;19916;-75
2023/03/23 04:28:50;;;;;;;;;;;;;;;6.86;100.00;99460.63;5092385;28;20302;-75
2023/03/23 04:31:15;;;;;;;;;;;;;;;6.62;100.00;99461.66;5092841;28;20416;-75
2023/03/23 04:33:41;;;;;;;;;;;;;;;6.76;100.00;99470.00;5089271;28;20027;-74
2023/03/23 04:36:06;;;;;;;;;;;;;;;6.80;100.00;99462.69;5086982;28;20011;-75
2023/03/23 04:38:32;;;;;;;;;;;;;;;6.55;100.00;99458.47;5092446;28;19966;-75
2023/03/23 04:41:00;;;;;;;;;;;;;;;6.32;100.00;99461.13;5092441;28;19915;-74
2023/03/23 04:43:26;;;;;;;;;;;;;;;6.49;100.00;99465.28;5092110;28;19920;-75
2023/03/23 04:45:55;;;;;;;;;;;;;;;6.61;100.00;99465.59;5091844;28;19926;-75
2023/03/23 04:48:22;;;;;;;;;;;;;;;6.58;100.00;99464.22;5092092;28;19923;-75
2023/03/23 04:50:48;;;;;;;;;;;;;;;6.58;100.00;99469.78;5083483;28;19916;-75
2023/03/23 04:53:13;;;;;;;;;;;;;;;6.30;100.00;99461.44;5083041;28;19916;-75
2023/03/23 04:55:38;;;;;;;;;;;;;;;6.34;100.00;99463.59;5092765;28;20409;-75
2023/03/23 04:58:05;;;;;;;;;;;;;;;6.49;100.00;99459.72;5092468;28;19918;-75
2023/03/23 05:00:30;;;;;;;;;;;;;;;6.35;100.00;99460.53;5092561;28;19989;-74
2023/03/23 05:02:56;;;;;;;;;;;;;;;6.22;100.00;99462.13;5092474;28;20468;-74
2023/03/23 05:05:23;;;;;;;;;;;;;;;6.07;100.00;99465.19;5091008;28;19926;-75
2023/03/23 05:07:48;;;;;;;;;;;;;;;6.25;100.00;99466.28;5092665;28;19920;-75
2023/03/23 05:10:15;;;;;;;;;;;;;;;6.31;100.00;99471.41;5076102;28;19923;-75
2023/03/23 05:12:40;;;;;;;;;;;;;;;6.43;100.00;99468.13;5080068;28;20291;-75
2023/03/23 05:15:06;;;;;;;;;;;;;;;6.62;100.00;99469.16;5091435;28;19945;-74
2023/03/23 05:17:32;;;;;;;;;;;;;;;6.72;100.00;99478.16;5089763;28;19950;-74
2023/03/23 05:19:58;;;;;;;;;;;;;;;6.54;100.00;99479.06;5089502;28;19919;-74
2023/03/23 05:22:26;;;;;;;;;;;;;;;6.64;100.00;99483.59;5077487;28;19954;-75
2023/03/23 05:24:51;;;;;;;;;;;;;;;6.67;100.00;99480.19;5087368;28;19951;-75
2023/03/23 05:27:18;;;;;;;;;;;;;;;6.64;100.00;99481.63;5104761;28;19951;-75
2023/03/23 05:29:45;;;;;;;;;;;;;;;6.79;100.00;99485.22;5089637;28;20438;-75
2023/03/23 05:32:11;;;;;;;;;;;;;;;6.80;100.00;99479.38;5092310;28;19916;-75
2023/03/23 05:34:36;;;;;;;;;;;;;;;6.77;100.00;99493.06;5090880;28;19916;-75
2023/03/23 05:37:02;;;;;;;;;;;;;;;6.71;100.00;99478.44;5091190;28;19919;-75
2023/03/23 05:39:28;;;;;;;;;;;;;;;6.62;100.00;99486.69;5092098;28;20386;-75
2023/03/23 05:41:54;;;;;;;;;;;;;;;6.83;100.00;99489.88;5089971;28;19920;-75
2023/03/23 05:44:20;;;;;;;;;;;;;;;7.07;100.00;99486.03;5080866;28;19950;-75
2023/03/23 05:46:46;;;;;;;;;;;;;;;6.95;100.00;99488.53;5091710;28;20014;-75
2023/03/23 05:49:11;;;;;;;;;;;;;;;6.93;100.00;99490.78;5088015;28;20003;-74
2023/03/23 05:51:36;;;;;;;;;;;;;;;7.01;100.00;99495.66;5082905;28;19980;-75
2023/03/23 05:54:03;;;;;;;;;;;;;;;7.33;100.00;99495.78;5086200;28;20385;-75
2023/03/23 05:56:30;;;;;;;;;;;;;;;7.44;100.00;99502.78;5088846;28;19922;-77
2023/03/23 05:58:55;;;;;;;;;;;;;;;7.68;100.00;99498.88;5091861;28;20293;-77
2023/03/23 06:01:20;;;;;;;;;;;;;;;7.59;100.00;99507.97;5091407;28;19924;-74
2023/03/23 06:03:46;;;;;;;;;;;;;;;7.86;100.00;99505.41;5078335;28;19931;-75
2023/03/23 06:06:11;;;;;;;;;;;;;;;7.97;100.00;99522.69;5089177;28;19920;-71
2023/03/23 06:08:37;;;;;;;;;;;;;;;7.96;100.00;99521.88;5079715;28;19959;-72
2023/03/23 06:11:03;;;;;;;;;;;;;;;8.07;100.00;99521.59;5087916;28;19919;-73
2023/03/23 06:13:28;;;;;;;;;;;;;;;7.85;99.74;99520.50;5086220;28;19924;-73
2023/03/23 06:15:57;;;;;;;;;;;;;;;7.55;100.00;99520.91;5106090;28;19912;-73
2023/03/23 06:18:23;;;;;;;;;;;;;;;7.68;100.00;99518.38;5088038;28;20006;-74
2023/03/23 06:20:48;;;;;;;;;;;;;;;7.91;100.00;99523.97;5081184;28;20094;-74
2023/03/23 06:23:13;;;;;;;;;;;;;;;8.13;100.00;99523.94;5088017;28;20002;-74
2023/03/23 06:25:39;;;;;;;;;;;;;;;8.22;100.00;99525.97;5092689;28;19912;-75
2023/03/23 06:28:04;;;;;;;;;;;;;;;8.05;98.92;99527.50;5088709;28;20019;-75
2023/03/23 06:30:30;;;;;;;;;;;;;;;8.00;99.46;99519.28;5087653;28;19912;-73
2023/03/23 06:32:55;;;;;;;;;;;;;;;7.97;100.00;99519.91;5083543;28;19916;-74
2023/03/23 06:35:21;;;;;;;;;;;;;;;7.98;100.00;99515.97;5081605;28;19927;-72
2023/03/23 06:37:46;;;;;;;;;;;;;;;8.03;100.00;99520.59;5094087;28;19916;-73
2023/03/23 06:40:12;;;;;;;;;;;;;;;7.99;99.39;99514.84;5093039;28;19919;-74
2023/03/23 06:42:37;;;;;;;;;;;;;;;8.23;99.31;99520.09;5092254;28;19928;-72
2023/03/23 06:45:03;;;;;;;;;;;;;;;8.34;98.63;99514.25;5081352;28;19917;-76
2023/03/23 06:47:32;;;;;;;;;;;;;;;8.41;99.26;99523.81;5091810;28;19951;-72
2023/03/23 06:49:57;;;;;;;;;;;;;;;8.62;98.67;99516.88;5087768;28;19916;-71
2023/03/23 06:52:23;;;;;;;;;;;;;;;8.63;98.54;99526.91;5088159;28;19931;-72
2023/03/23 06:54:49;;;;;;;;;;;;;;;8.52;99.17;99529.97;5092663;28;19916;-71
2023/03/23 06:57:15;;;;;;;;;;;;;;;8.44;100.00;99536.25;5094275;28;19923;-70
2023/03/23 06:59:41;;;;;;;;;;;;;;;8.49;100.00;99543.69;5092791;28;19973;-70
2023/03/23 07:02:09;;;;;;;;;;;;;;;8.52;100.00;99545.88;5088921;28;19920;-73
2023/03/23 07:04:35;;;;;;;;;;;;;;;8.69;100.00;99545.16;5080922;28;19934;-71
2023/03/23 07:07:01;;;;;;;;;;;;;;;8.56;100.00;99547.69;5089293;28;19924;-72
2023/03/23 07:09:26;;;;;;;;;;;;;;;8.57;100.00;99546.56;5076422;28;20015;-72
2023/03/23 07:11:51;;;;;;;;;;;;;;;8.56;100.00;99542.09;5083340;28;20023;-73
2023/03/23 07:14:17;;;;;;;;;;;;;;;8.59;100.00;99545.41;5077179;28;19965;-71
2023/03/23 07:16:42;;;;;;;;;;;;;;;8.73;99.80;99543.34;5080304;28;19977;-73
2023/03/23 07:19:07;;;;;;;;;;;;;;;8.83;99.21;99548.66;5097672;28;20540;-72
2023/03/23 07:21:33;;;;;;;;;;;;;;;8.91;99.24;99551.78;5099258;28;19924;-71
2023/03/23 07:23:58;;;;;;;;;;;;;;;8.87;98.68;99553.59;5073657;28;19917;-70
2023/03/23 07:26:23;;;;;;;;;;;;;;;8.98;98.01;99546.56;5109837;27;19973;-72
2023/03/23 07:28:49;;;;;;;;;;;;;;;9.19;96.04;99549.59;5090881;28;19924;-72
2023/03/23 07:31:14;;;;;;;;;;;;;;;9.33;96.03;99552.25;5078466;28;19931;-71
2023/03/23 07:33:39;;;;;;;;;;;;;;;9.45;96.67;99548.81;5078207;28;20016;-72
2023/03/23 07:36:06;;;;;;;;;;;;;;;9.65;95.98;99555.78;5079545;28;20352;-76
2023/03/23 07:38:31;;;;;;;;;;;;;;;10.08;93.28;99547.72;5083779;28;20167;-72
2023/03/23 07:40:57;;;;;;;;;;;;;;;10.59;90.59;99547.16;5091285;28;20453;-72
2023/03/23 07:43:23;;;;;;;;;;;;;;;10.98;87.53;99548.03;5075275;28;19916;-71
2023/03/23 07:45:48;;;;;;;;;;;;;;;11.50;85.87;99557.31;5080789;28;20380;-71
2023/03/23 07:48:14;;;;;;;;;;;;;;;11.59;81.21;99557.25;5081926;28;19916;-71
2023/03/23 07:50:40;;;;;;;;;;;;;;;11.60;78.83;99556.91;5085635;28;19916;-73
2023/03/23 07:53:05;;;;;;;;;;;;;;;11.44;78.75;99559.50;5080868;28;19916;-73
2023/03/23 07:55:30;;;;;;;;;;;;;;;11.29;79.14;99555.28;5081333;28;19931;-74
2023/03/23 07:57:56;;;;;;;;;;;;;;;11.45;79.52;99561.13;5089675;28;20006;-73
2023/03/23 08:00:23;;;;;;;;;;;;;;;11.60;79.82;99551.31;5074006;28;19942;-72
2023/03/23 08:02:50;;;;;;;;;;;;;;;11.91;77.80;99566.09;5074268;28;19970;-76
2023/03/23 08:05:16;;;;;;;;;;;;;;;11.84;76.76;99561.03;5085863;28;20330;-73
2023/03/23 08:07:42;;;;;;;;;;;;;;;12.38;76.98;99550.22;5079657;28;19924;-73
2023/03/23 08:10:11;;;;;;;;;;;;;;;12.37;75.71;99552.19;5094024;28;20367;-73
2023/03/23 08:12:37;;;;;;;;;;;;;;;12.43;74.32;99553.63;5077003;28;19951;-72
2023/03/23 08:15:06;;;;;;;;;;;;;;;12.90;73.49;99557.22;5087692;28;19955;-72
2023/03/23 08:17:31;;;;;;;;;;;;;;;13.29;70.94;99551.28;5083559;28;19916;-71
2023/03/23 08:19:57;;;;;;;;;;;;;;;13.14;70.34;99556.44;5083861;28;20011;-72
2023/03/23 08:22:23;;;;;;;;;;;;;;;13.11;70.84;99548.72;5103957;27;19921;-71
2023/03/23 08:24:48;;;;;;;;;;;;;;;13.17;70.37;99552.91;5072573;28;20007;-72
2023/03/23 08:27:13;;;;;;;;;;;;;;;13.68;70.42;99548.13;5072389;28;19932;-71
2023/03/23 08:29:40;;;;;;;;;;;;;;;14.20;67.13;99546.44;5081648;28;19917;-71
2023/03/23 08:32:05;;;;;;;;;;;;;;;14.29;66.22;99547.09;5072319;28;19916;-72
2023/03/23 08:34:31;;;;;;;;;;;;;;;14.18;66.45;99546.78;5085218;28;20065;-72
2023/03/23 08:36:56;;;;;;;;;;;;;;;14.06;67.16;99555.28;5072176;28;19912;-72
2023/03/23 08:39:22;;;;;;;;;;;;;;;14.54;64.64;99543.34;5072321;28;20386;-72
2023/03/23 08:41:48;;;;;;;;;;;;;;;13.89;65.83;99554.41;5077718;28;19928;-71
2023/03/23 08:44:13;;;;;;;;;;;;;;;13.78;67.54;99547.63;5079889;28;19916;-71
2023/03/23 08:46:39;;;;;;;;;;;;;;;14.04;65.66;99552.00;5083751;28;20018;-72
2023/03/23 08:49:05;;;;;;;;;;;;;;;14.17;65.68;99550.78;5076353;28;20351;-72
2023/03/23 08:51:31;;;;;;;;;;;;;;;14.60;63.95;99541.91;5087514;28;19916;-72
2023/03/23 08:53:56;;;;;;;;;;;;;;;14.46;63.83;99537.50;5072062;28;20437;-72
2023/03/23 08:56:22;;;;;;;;;;;;;;;14.91;62.37;99540.31;5084737;28;19924;-72
2023/03/23 08:58:48;;;;;;;;;;;;;;;14.74;61.34;99552.75;5100067;28;19916;-72
2023/03/23 09:01:14;;;;;;;;;;;;;;;15.39;61.50;99542.28;5089440;28;19974;-72
2023/03/23 09:03:40;;;;;;;;;;;;;;;15.05;59.02;99544.69;5096324;28;20377;-72
2023/03/23 09:06:06;;;;;;;;;;;;;;;15.10;58.11;99542.41;5071503;28;19920;-72
2023/03/23 09:08:32;;;;;;;;;;;;;;;14.83;62.77;99539.31;5089683;28;19919;-72
2023/03/23 09:11:08;;;;;;;;;;;;;;;15.18;61.68;99534.16;5084559;28;20387;-72
2023/03/23 09:13:34;;;;;;;;;;;;;;;15.56;56.92;99535.44;5072491;28;19916;-72
2023/03/23 09:15:59;;;;;;;;;;;;;;;15.73;54.90;99535.03;5071852;28;19912;-72
2023/03/23 09:18:25;;;;;;;;;;;;;;;15.84;54.16;99532.47;5073446;28;20019;-72
2023/03/23 09:20:51;;;;;;;;;;;;;;;15.48;55.28;99534.47;5071776;28;19924;-72
2023/03/23 09:23:16;;;;;;;;;;;;;;;15.80;54.50;99536.38;5071589;28;19940;-72
2023/03/23 09:25:42;;;;;;;;;;;;;;;15.29;54.15;99536.03;5108410;27;19962;-72
2023/03/23 09:28:07;;;;;;;;;;;;;;;15.53;54.09;99530.56;5078998;28;19946;-72
2023/03/23 09:30:35;;;;;;;;;;;;;;;15.83;53.98;99528.00;5074754;28;20011;-73
2023/03/23 09:33:01;;;;;;;;;;;;;;;15.63;53.32;99523.50;5073409;28;19927;-72
2023/03/23 09:35:27;;;;;;;;;;;;;;;15.92;53.15;99525.00;5076653;28;19916;-72
2023/03/23 09:37:53;;;;;;;;;;;;;;;16.09;54.41;99522.91;5087538;28;20018;-72
2023/03/23 09:40:27;;;;;;;;;;;;;;;15.67;52.65;99513.13;5088298;28;19985;-72
2023/03/23 09:43:04;;;;;;;;;;;;;;;15.68;51.02;99514.75;5078314;28;20011;-72
2023/03/23 09:45:42;;;;;;;;;;;;;;;15.63;50.32;99512.25;5081348;28;19981;-72
2023/03/23 09:48:26;;;;;;;;;;;;;;;15.21;50.66;99511.69;5074257;28;19924;-72
2023/03/23 09:50:57;;;;;;;;;;;;;;;15.76;51.24;99510.91;5081939;28;19946;-72
2023/03/23 09:53:34;;;;;;;;;;;;;;;15.74;50.08;99516.13;5080600;28;19920;-72
2023/03/23 09:56:00;;;;;;;;;;;;;;;15.69;48.35;99511.56;5078136;28;19999;-73
2023/03/23 09:58:35;;;;;;;;;;;;;;;15.62;47.61;99511.41;5078295;28;19916;-72
2023/03/23 10:01:00;;;;;;;;;;;;;;;16.18;48.00;99515.03;5078373;28;19917;-72
2023/03/23 10:03:27;;;;;;;;;;;;;;;16.19;44.29;99515.88;5083398;28;19923;-76
2023/03/23 10:05:54;;;;;;;;;;;;;;;15.86;45.31;99507.50;5084602;28;20683;-76
2023/03/23 10:08:24;;;;;;;;;;;;;;;16.30;45.01;99508.44;5071285;28;19916;-76
2023/03/23 10:10:52;;;;;;;;;;;;;;;15.94;46.11;99511.31;5085106;28;19923;-77
2023/03/23 10:13:26;;;;;;;;;;;;;;;16.45;47.38;99511.53;5080443;28;19925;-74
2023/03/23 10:15:53;;;;;;;;;;;;;;;16.55;46.57;99502.44;5074732;28;19920;-74
2023/03/23 10:18:18;;;;;;;;;;;;;;;16.70;46.39;99506.31;5086152;28;20022;-78
2023/03/23 10:20:47;;;;;;;;;;;;;;;17.01;46.75;99498.00;5072300;28;20006;-75
2023/03/23 10:23:18;;;;;;;;;;;;;;;16.96;45.68;99505.56;5080817;28;19921;-73
2023/03/23 10:25:56;;;;;;;;;;;;;;;17.07;44.46;99497.28;5082674;28;19950;-74
2023/03/23 10:28:34;;;;;;;;;;;;;;;17.11;44.83;99491.72;5077507;28;19924;-75
2023/03/23 10:31:01;;;;;;;;;;;;;;;17.22;45.30;99484.22;5091335;28;19916;-75
2023/03/23 10:33:34;;;;;;;;;;;;;;;17.35;43.88;99487.66;5084686;28;20398;-68
2023/03/23 10:36:13;;;;;;;;;;;;;;;17.12;47.78;99488.50;5071351;28;19917;-69
2023/03/23 10:38:44;;;;;;;;;;;;;;;17.03;46.01;99484.34;5080732;28;19931;-69
2023/03/23 10:41:14;;;;;;;;;;;;;;;17.16;46.65;99487.75;5076097;28;19923;-71
2023/03/23 10:43:41;;;;;;;;;;;;;;;17.26;46.27;99485.09;5077462;28;19916;-69
2023/03/23 10:46:16;;;;;;;;;;;;;;;17.27;47.07;99483.09;5092079;28;20391;-70
2023/03/23 10:48:41;;;;;;;;;;;;;;;17.30;45.59;99476.66;5111246;27;19924;-72
2023/03/23 10:51:12;;;;;;;;;;;;;;;17.47;46.49;99478.13;5079323;28;19935;-73
2023/03/23 10:53:50;;;;;;;;;;;;;;;17.32;46.06;99477.13;5079081;28;19968;-70
2023/03/23 10:56:22;;;;;;;;;;;;;;;17.26;46.45;99472.97;5088050;28;19916;-71
2023/03/23 10:58:47;;;;;;;;;;;;;;;17.06;44.47;99477.91;5089819;28;19920;-71
2023/03/23 11:01:12;;;;;;;;;;;;;;;17.00;45.54;99480.25;5090514;28;20366;-70
2023/03/23 11:03:38;;;;;;;;;;;;;;;17.28;45.27;99478.25;5090328;28;20310;-70
2023/03/23 11:06:09;;;;;;;;;;;;;;;17.09;43.29;99479.97;5085682;28;19963;-70
2023/03/23 11:08:54;;;;;;;;;;;;;;;17.28;44.09;99478.25;5089731;28;20371;-72
2023/03/23 11:11:24;;;;;;;;;;;;;;;17.18;45.41;99474.88;5082437;28;19919;-71
2023/03/23 11:13:55;;;;;;;;;;;;;;;17.15;46.52;99470.00;5085988;28;19912;-71
2023/03/23 11:16:25;;;;;;;;;;;;;;;17.02;48.60;99465.75;5087787;28;20318;-72
2023/03/23 11:18:52;;;;;;;;;;;;;;;17.23;49.48;99466.06;5083265;28;20015;-72
2023/03/23 11:21:19;;;;;;;;;;;;;;;16.97;46.63;99459.19;5080489;28;19916;-71
2023/03/23 11:23:48;;;;;;;;;;;;;;;17.04;45.99;99458.50;5087215;28;19966;-72
2023/03/23 11:26:23;;;;;;;;;;;;;;;17.09;44.21;99466.69;5083493;28;19972;-71
2023/03/23 11:28:52;;;;;;;;;;;;;;;17.17;44.65;99461.13;5073580;28;19989;-70
2023/03/23 11:31:21;;;;;;;;;;;;;;;17.14;44.90;99457.06;5090060;28;19916;-71
2023/03/23 11:33:50;;;;;;;;;;;;;;;17.15;44.43;99461.50;5077959;28;19920;-70
2023/03/23 11:36:16;;;;;;;;;;;;;;;17.42;43.50;99457.84;5090512;28;20010;-70
2023/03/23 11:38:43;;;;;;;;;;;;;;;17.50;43.08;99451.94;5088233;28;20451;-71
2023/03/23 11:41:12;;;;;;;;;;;;;;;17.37;43.93;99453.34;5084151;28;19917;-69
2023/03/23 11:43:43;;;;;;;;;;;;;;;17.39;44.80;99445.31;5080245;28;19916;-70
2023/03/23 11:46:14;;;;;;;;;;;;;;;17.72;44.37;99457.84;5089106;28;19982;-70
2023/03/23 11:48:42;;;;;;;;;;;;;;;18.11;42.81;99445.41;5084172;28;19964;-70
2023/03/23 11:51:12;;;;;;;;;;;;;;;18.13;42.29;99445.03;5082115;28;19916;-72
2023/03/23 11:53:38;;;;;;;;;;;;;;;17.83;42.55;99441.03;5084563;28;20394;-71
2023/03/23 11:56:12;;;;;;;;;;;;;;;17.67;42.26;99446.88;5118424;27;20611;-72
2023/03/23 11:58:38;;;;;;;;;;;;;;;18.06;40.21;99445.78;5082152;28;20298;-72
2023/03/23 12:01:06;;;;;;;;;;;;;;;18.23;39.90;99447.19;5091540;28;19923;-73
2023/03/23 12:03:46;;;;;;;;;;;;;;;18.15;40.51;99439.81;5090560;28;19969;-72
2023/03/23 12:06:13;;;;;;;;;;;;;;;18.15;41.61;99439.81;5091364;28;20011;-73
2023/03/23 12:08:41;;;;;;;;;;;;;;;18.36;41.28;99437.19;5091822;28;20393;-73
2023/03/23 12:11:07;;;;;;;;;;;;;;;18.55;41.52;99434.53;5090002;28;19941;-72
2023/03/23 12:13:52;;;;;;;;;;;;;;;18.58;41.43;99437.41;5088501;28;20405;-74
2023/03/23 12:16:17;;;;;;;;;;;;;;;18.42;40.94;99432.00;5088043;28;19920;-72
2023/03/23 12:19:03;;;;;;;;;;;;;;;18.54;41.87;99425.22;5078052;28;19946;-71
2023/03/23 12:21:48;;;;;;;;;;;;;;;18.42;41.28;99432.00;5085479;28;19916;-71
2023/03/23 12:24:25;;;;;;;;;;;;;;;18.08;39.76;99434.88;5092757;28;19912;-71
2023/03/23 12:27:25;;;;;;;;;;;;;;;18.41;38.55;99418.22;5091549;28;19917;-71
2023/03/23 12:30:09;;;;;;;;;;;;;;;18.63;40.42;99417.22;5058478;28;21618;-70
2023/03/23 12:32:53;;;;;;;;;;;;;;;18.26;43.08;99412.41;5082665;28;20374;-71
2023/03/23 12:35:24;;;;;;;;;;;;;;;18.26;42.14;99417.25;5088693;28;19935;-71
2023/03/23 12:38:16;;;;;;;;;;;;;;;18.07;42.48;99421.94;5090692;28;19923;-70
2023/03/23 12:40:41;;;;;;;;;;;;;;;18.15;42.24;99412.28;5089670;28;19912;-71
2023/03/23 12:43:15;;;;;;;;;;;;;;;18.16;41.74;99413.13;5084787;28;19925;-71
2023/03/23 12:45:50;;;;;;;;;;;;;;;18.30;41.43;99410.44;5086268;28;19916;-73
2023/03/23 12:48:18;;;;;;;;;;;;;;;18.37;41.51;99419.00;5088803;28;19927;-71
2023/03/23 12:50:48;;;;;;;;;;;;;;;18.23;40.95;99414.00;5074791;28;20210;-71
2023/03/23 12:53:39;;;;;;;;;;;;;;;17.92;40.73;99409.59;5095541;28;19916;-73